createdAt,value
2022-08-01T00:07:58.581Z,3.00
2022-08-01T00:18:02.031Z,3.05
2022-08-01T00:28:09.522Z,3.00
2022-08-01T00:38:12.975Z,3.03
2022-08-01T00:48:17.406Z,2.70
2022-08-01T00:58:20.533Z,3.05
2022-08-01T01:08:37.185Z,2.88
2022-08-01T01:18:47.996Z,3.30
2022-08-01T01:29:03.794Z,3.55
2022-08-01T01:39:07.899Z,3.40
2022-08-01T01:49:13.646Z,3.20
2022-08-01T01:59:19.305Z,4.15
2022-08-01T02:09:31.132Z,3.75
2022-08-01T02:19:38.555Z,3.10
2022-08-01T02:29:47.091Z,3.40
2022-08-01T02:39:53.053Z,3.53
2022-08-01T02:49:58.398Z,3.45
2022-08-01T03:00:02.001Z,3.30
2022-08-01T03:10:07.553Z,3.33
2022-08-01T03:20:14.380Z,3.40
2022-08-01T03:30:19.148Z,3.08
2022-08-01T03:40:26.909Z,3.22
2022-08-01T03:50:34.875Z,3.55
2022-08-01T04:00:40.217Z,3.60
2022-08-01T04:10:44.659Z,2.90
2022-08-01T04:20:48.799Z,3.60
2022-08-01T04:31:01.621Z,3.60
2022-08-01T04:41:08.907Z,3.45
2022-08-01T04:51:17.573Z,3.67
2022-08-01T05:01:20.656Z,3.70
2022-08-01T05:11:25.137Z,3.72
2022-08-01T05:21:28.175Z,3.13
2022-08-01T05:31:35.074Z,3.85
2022-08-01T05:41:38.690Z,3.40
2022-08-01T05:51:43.155Z,3.20
2022-08-01T06:01:46.293Z,3.13
2022-08-01T06:11:50.811Z,3.22
2022-08-01T06:21:53.932Z,2.90
2022-08-01T06:31:58.809Z,2.85
2022-08-01T06:42:01.837Z,2.95
2022-08-01T06:52:07.020Z,2.63
2022-08-01T07:02:10.497Z,2.17
2022-08-01T07:12:14.938Z,2.45
2022-08-01T07:22:23.526Z,2.05
2022-08-01T07:32:30.118Z,2.10
2022-08-01T07:42:33.183Z,2.22
2022-08-01T07:52:37.604Z,2.63
2022-08-01T08:02:40.668Z,2.50
2022-08-01T08:12:47.017Z,2.60
2022-08-01T08:22:50.061Z,2.60
2022-08-01T08:32:55.071Z,2.50
2022-08-01T08:43:00.041Z,2.70
2022-08-01T08:53:06.614Z,2.20
2022-08-01T09:03:09.941Z,2.33
2022-08-01T09:13:16.443Z,2.50
2022-08-01T09:23:33.941Z,2.13
2022-08-01T09:33:53.073Z,2.40
2022-08-01T09:43:56.730Z,2.50
2022-08-01T09:54:01.879Z,1.98
2022-08-01T10:04:11.514Z,1.80
2022-08-01T10:14:18.280Z,1.80
2022-08-01T10:24:22.626Z,1.75
2022-08-01T10:34:31.191Z,1.90
2022-08-01T10:44:35.435Z,1.50
2022-08-01T10:54:52.887Z,1.50
2022-08-01T11:04:59.718Z,1.45
2022-08-01T11:15:29.127Z,1.55
2022-08-01T11:26:28.862Z,1.42
2022-08-01T11:36:57.550Z,1.27
2022-08-01T11:47:09.366Z,1.23
2022-08-01T11:57:16.784Z,0.95
2022-08-01T12:07:21.063Z,0.60
2022-08-01T12:17:37.981Z,0.80
2022-08-01T12:27:42.793Z,0.57
2022-08-01T12:37:49.583Z,1.00
2022-08-01T12:47:54.236Z,1.00
2022-08-01T12:58:10.424Z,0.88
2022-08-01T13:08:20.640Z,0.98
2022-08-01T13:18:30.506Z,1.00
2022-08-01T13:28:33.755Z,1.50
2022-08-01T13:38:55.666Z,1.40
2022-08-01T13:48:59.149Z,1.10
2022-08-01T13:59:09.958Z,1.23
2022-08-01T14:09:17.280Z,1.27
2022-08-01T14:19:38.450Z,1.38
2022-08-01T14:30:02.279Z,1.15
2022-08-01T14:40:10.225Z,1.40
2022-08-01T14:50:16.587Z,1.20
2022-08-01T15:00:22.656Z,1.33
2022-08-01T15:10:25.699Z,1.63
2022-08-01T15:20:31.026Z,1.40
2022-08-01T15:30:35.604Z,1.50
2022-08-01T15:40:40.042Z,1.38
2022-08-01T15:50:43.183Z,1.50
2022-08-01T16:00:47.638Z,1.50
2022-08-01T16:10:50.711Z,1.90
2022-08-01T16:20:55.196Z,1.80
2022-08-01T16:31:04.876Z,2.25
2022-08-01T16:41:22.751Z,3.20
2022-08-01T16:51:25.806Z,2.10
2022-08-01T17:02:01.472Z,2.15
2022-08-01T17:11:53.295Z,2.20
2022-08-01T17:21:57.752Z,5.20
2022-08-01T17:32:00.845Z,2.38
2022-08-01T17:42:05.633Z,2.20
2022-08-01T17:52:08.709Z,2.22
2022-08-01T18:02:14.587Z,2.30
2022-08-01T18:12:18.511Z,2.30
2022-08-01T18:22:31.690Z,2.20
2022-08-01T18:32:37.004Z,2.00
2022-08-01T18:42:41.557Z,2.10
2022-08-01T18:52:45.021Z,2.40
2022-08-01T19:02:49.423Z,2.50
2022-08-01T19:12:52.767Z,2.03
2022-08-01T19:22:57.391Z,1.90
2022-08-01T19:33:00.566Z,3.30
2022-08-01T19:43:05.198Z,2.45
2022-08-01T19:53:11.170Z,2.92
2022-08-01T20:03:18.596Z,2.63
2022-08-01T20:13:22.701Z,2.40
2022-08-01T20:23:28.907Z,3.33
2022-08-01T20:33:32.273Z,3.08
2022-08-01T20:43:37.668Z,3.03
2022-08-01T20:53:41.859Z,3.00
2022-08-01T21:04:00.355Z,2.97
2022-08-01T21:14:07.011Z,3.03
2022-08-01T21:24:17.060Z,3.00
2022-08-01T21:34:20.347Z,3.13
2022-08-01T21:44:28.726Z,3.50
2022-08-01T21:54:41.328Z,2.92
2022-08-01T22:04:50.025Z,3.30
2022-08-01T22:14:56.985Z,3.95
2022-08-01T22:25:01.729Z,3.17
2022-08-01T22:35:08.489Z,3.20
2022-08-01T22:45:18.549Z,3.42
2022-08-01T22:55:22.374Z,3.88
2022-08-01T23:05:29.967Z,3.20
2022-08-01T23:15:34.510Z,3.40
2022-08-01T23:25:39.823Z,3.65
2022-08-01T23:35:43.425Z,3.70
2022-08-01T23:46:02.200Z,3.70
